Terminal Aerodrome Forecast
Issued by NWS

Home | Current Version | Previous Version | Text Only | Print | Product List | Glossary On
Versions: 1 2 3 4 5 6 7 8 9 10 11 12 13 14 15
585
FTUS42 KTAE 121120
TAFVLD
TAF
KVLD 121120Z 1212/1312 19003KT P6SM BKN020
      TEMPO 1212/1216 SCT020
     FM121600 24008G18KT P6SM SCT030
     FM130000 29004KT P6SM SKC=

USA.gov is the U.S. government's official web portal to all federal, state and local government web resources and services.